sensor_id;sensor_type;location;lat;lon;timestamp;pressure;altitude;pressure_sealevel;temperature;humidity
70506;BME280;58032;49.820;6.274;2022-10-15T00:00:30;96858.09;;;12.39;100.00
70506;BME280;58032;49.820;6.274;2022-10-15T00:02:57;96858.66;;;12.43;100.00
70506;BME280;58032;49.820;6.274;2022-10-15T00:05:36;96862.06;;;12.47;100.00
70506;BME280;58032;49.820;6.274;2022-10-15T00:08:15;96877.44;;;12.46;100.00
70506;BME280;58032;49.820;6.274;2022-10-15T00:10:53;96886.41;;;12.45;100.00
70506;BME280;58032;49.820;6.274;2022-10-15T00:13:32;96885.31;;;12.42;100.00
70506;BME280;58032;49.820;6.274;2022-10-15T00:16:15;96886.03;;;12.37;100.00
70506;BME280;58032;49.820;6.274;2022-10-15T00:18:56;96884.16;;;12.34;100.00
70506;BME280;58032;49.820;6.274;2022-10-15T00:21:34;96878.81;;;12.36;100.00
70506;BME280;58032;49.820;6.274;2022-10-15T00:24:14;96881.84;;;12.32;100.00
70506;BME280;58032;49.820;6.274;2022-10-15T00:26:54;96889.25;;;12.30;100.00
70506;BME280;58032;49.820;6.274;2022-10-15T00:29:32;96892.56;;;12.28;100.00
70506;BME280;58032;49.820;6.274;2022-10-15T00:32:12;96889.75;;;12.28;100.00
70506;BME280;58032;49.820;6.274;2022-10-15T00:34:52;96886.06;;;12.22;100.00
70506;BME280;58032;49.820;6.274;2022-10-15T00:37:30;96890.03;;;12.15;100.00
70506;BME280;58032;49.820;6.274;2022-10-15T00:40:08;96888.78;;;12.16;100.00
70506;BME280;58032;49.820;6.274;2022-10-15T00:42:48;96885.25;;;12.22;100.00
70506;BME280;58032;49.820;6.274;2022-10-15T00:45:31;96903.47;;;12.21;100.00
70506;BME280;58032;49.820;6.274;2022-10-15T00:48:11;96902.09;;;12.16;100.00
70506;BME280;58032;49.820;6.274;2022-10-15T00:50:51;96903.34;;;12.15;100.00
70506;BME280;58032;49.820;6.274;2022-10-15T00:53:33;96910.00;;;12.12;100.00
70506;BME280;58032;49.820;6.274;2022-10-15T00:56:00;96908.22;;;12.14;100.00
70506;BME280;58032;49.820;6.274;2022-10-15T00:58:30;96900.47;;;12.09;100.00
70506;BME280;58032;49.820;6.274;2022-10-15T01:00:58;96901.41;;;12.06;100.00
70506;BME280;58032;49.820;6.274;2022-10-15T01:03:25;96910.19;;;12.08;100.00
70506;BME280;58032;49.820;6.274;2022-10-15T01:05:52;96910.38;;;12.05;100.00
70506;BME280;58032;49.820;6.274;2022-10-15T01:08:20;96901.41;;;12.06;100.00
70506;BME280;58032;49.820;6.274;2022-10-15T01:11:03;96892.19;;;12.06;100.00
70506;BME280;58032;49.820;6.274;2022-10-15T01:13:58;96906.69;;;11.98;100.00
70506;BME280;58032;49.820;6.274;2022-10-15T01:19:30;96921.91;;;11.92;100.00
70506;BME280;58032;49.820;6.274;2022-10-15T01:22:11;96905.88;;;11.98;100.00
70506;BME280;58032;49.820;6.274;2022-10-15T01:24:43;96914.81;;;11.96;100.00
70506;BME280;58032;49.820;6.274;2022-10-15T01:27:32;96908.56;;;11.92;100.00
70506;BME280;58032;49.820;6.274;2022-10-15T01:30:18;96901.66;;;11.93;100.00
70506;BME280;58032;49.820;6.274;2022-10-15T01:32:56;96901.59;;;11.87;100.00
70506;BME280;58032;49.820;6.274;2022-10-15T01:38:46;96902.56;;;11.84;100.00
70506;BME280;58032;49.820;6.274;2022-10-15T01:44:33;96900.41;;;11.79;100.00
70506;BME280;58032;49.820;6.274;2022-10-15T01:47:36;96899.03;;;11.75;100.00
70506;BME280;58032;49.820;6.274;2022-10-15T01:50:07;96913.16;;;11.75;100.00
70506;BME280;58032;49.820;6.274;2022-10-15T01:52:37;96913.44;;;11.77;100.00
70506;BME280;58032;49.820;6.274;2022-10-15T01:55:10;96911.59;;;11.74;100.00
70506;BME280;58032;49.820;6.274;2022-10-15T01:57:42;96918.78;;;11.75;100.00
70506;BME280;58032;49.820;6.274;2022-10-15T02:00:11;96916.75;;;11.75;100.00
70506;BME280;58032;49.820;6.274;2022-10-15T02:02:39;96915.19;;;11.74;100.00
70506;BME280;58032;49.820;6.274;2022-10-15T02:05:32;96922.38;;;11.75;100.00
70506;BME280;58032;49.820;6.274;2022-10-15T02:10:53;96914.41;;;11.74;100.00
70506;BME280;58032;49.820;6.274;2022-10-15T02:13:23;96920.81;;;11.74;100.00
70506;BME280;58032;49.820;6.274;2022-10-15T02:21:23;96904.69;;;11.75;100.00
70506;BME280;58032;49.820;6.274;2022-10-15T02:26:40;96914.59;;;11.70;100.00
70506;BME280;58032;49.820;6.274;2022-10-15T02:29:11;96903.63;;;11.72;100.00
70506;BME280;58032;49.820;6.274;2022-10-15T02:31:42;96905.16;;;11.73;100.00
70506;BME280;58032;49.820;6.274;2022-10-15T02:34:12;96908.97;;;11.70;100.00
70506;BME280;58032;49.820;6.274;2022-10-15T02:36:42;96903.31;;;11.70;100.00
70506;BME280;58032;49.820;6.274;2022-10-15T02:39:13;96903.31;;;11.70;100.00
70506;BME280;58032;49.820;6.274;2022-10-15T02:41:42;96901.75;;;11.69;100.00
70506;BME280;58032;49.820;6.274;2022-10-15T02:44:11;96915.84;;;11.69;100.00
70506;BME280;58032;49.820;6.274;2022-10-15T02:46:38;96911.97;;;11.66;100.00
70506;BME280;58032;49.820;6.274;2022-10-15T02:49:05;96915.56;;;11.67;100.00
70506;BME280;58032;49.820;6.274;2022-10-15T02:51:34;96925.28;;;11.66;100.00
70506;BME280;58032;49.820;6.274;2022-10-15T02:54:02;96930.16;;;11.65;100.00
70506;BME280;58032;49.820;6.274;2022-10-15T02:56:30;96930.91;;;11.66;100.00
70506;BME280;58032;49.820;6.274;2022-10-15T02:58:57;96920.88;;;11.65;100.00
70506;BME280;58032;49.820;6.274;2022-10-15T03:01:24;96920.88;;;11.65;100.00
70506;BME280;58032;49.820;6.274;2022-10-15T03:03:52;96921.19;;;11.67;100.00
70506;BME280;58032;49.820;6.274;2022-10-15T03:06:19;96917.13;;;11.68;100.00
70506;BME280;58032;49.820;6.274;2022-10-15T03:08:46;96914.91;;;11.72;100.00
70506;BME280;58032;49.820;6.274;2022-10-15T03:11:14;96910.78;;;11.73;100.00
70506;BME280;58032;49.820;6.274;2022-10-15T03:13:41;96904.09;;;11.70;100.00
70506;BME280;58032;49.820;6.274;2022-10-15T03:16:09;96915.56;;;11.67;100.00
70506;BME280;58032;49.820;6.274;2022-10-15T03:18:38;96915.56;;;11.67;100.00
70506;BME280;58032;49.820;6.274;2022-10-15T03:21:08;96918.97;;;11.71;100.00
70506;BME280;58032;49.820;6.274;2022-10-15T03:23:35;96913.53;;;11.67;100.00
70506;BME280;58032;49.820;6.274;2022-10-15T03:26:08;96918.69;;;11.69;100.00
70506;BME280;58032;49.820;6.274;2022-10-15T03:28:35;96913.03;;;11.69;100.00
70506;BME280;58032;49.820;6.274;2022-10-15T03:31:02;96914.09;;;11.71;100.00
70506;BME280;58032;49.820;6.274;2022-10-15T03:33:29;96917.41;;;11.70;100.00
70506;BME280;58032;49.820;6.274;2022-10-15T03:35:56;96907.41;;;11.69;100.00
70506;BME280;58032;49.820;6.274;2022-10-15T03:38:23;96916.94;;;11.71;100.00
70506;BME280;58032;49.820;6.274;2022-10-15T03:40:51;96915.38;;;11.70;100.00
70506;BME280;58032;49.820;6.274;2022-10-15T03:43:31;96912.09;;;11.72;100.00
70506;BME280;58032;49.820;6.274;2022-10-15T03:46:04;96923.94;;;11.76;100.00
70506;BME280;58032;49.820;6.274;2022-10-15T03:48:35;96920.34;;;11.76;100.00
70506;BME280;58032;49.820;6.274;2022-10-15T03:51:02;96913.44;;;11.77;100.00
70506;BME280;58032;49.820;6.274;2022-10-15T03:53:29;96912.47;;;11.80;100.00
70506;BME280;58032;49.820;6.274;2022-10-15T03:56:02;96918.78;;;11.90;100.00
70506;BME280;58032;49.820;6.274;2022-10-15T03:58:29;96913.44;;;11.92;100.00
70506;BME280;58032;49.820;6.274;2022-10-15T04:00:59;96920.97;;;11.95;100.00
70506;BME280;58032;49.820;6.274;2022-10-15T04:03:26;96930.56;;;11.88;100.00
70506;BME280;58032;49.820;6.274;2022-10-15T04:05:53;96925.22;;;11.90;100.00
70506;BME280;58032;49.820;6.274;2022-10-15T04:08:22;96924.16;;;11.87;100.00
70506;BME280;58032;49.820;6.274;2022-10-15T04:10:50;96926.50;;;11.89;100.00
70506;BME280;58032;49.820;6.274;2022-10-15T04:13:17;96931.81;;;11.87;100.00
70506;BME280;58032;49.820;6.274;2022-10-15T04:15:44;96931.63;;;11.91;100.00
70506;BME280;58032;49.820;6.274;2022-10-15T04:18:12;96925.88;;;11.85;100.00
70506;BME280;58032;49.820;6.274;2022-10-15T04:20:40;96939.34;;;11.90;100.00
70506;BME280;58032;49.820;6.274;2022-10-15T04:23:15;96931.34;;;11.88;100.00
70506;BME280;58032;49.820;6.274;2022-10-15T04:25:58;96941.66;;;11.92;100.00
70506;BME280;58032;49.820;6.274;2022-10-15T04:28:26;96937.88;;;11.95;100.00
70506;BME280;58032;49.820;6.274;2022-10-15T04:30:58;96944.97;;;11.90;100.00
70506;BME280;58032;49.820;6.274;2022-10-15T04:33:25;96946.72;;;11.87;100.00
70506;BME280;58032;49.820;6.274;2022-10-15T04:36:03;96944.19;;;11.90;100.00
70506;BME280;58032;49.820;6.274;2022-10-15T04:38:53;96933.69;;;11.90;100.00
70506;BME280;58032;49.820;6.274;2022-10-15T04:41:39;96932.50;;;11.82;100.00
70506;BME280;58032;49.820;6.274;2022-10-15T04:44:10;96929.81;;;11.87;100.00
70506;BME280;58032;49.820;6.274;2022-10-15T04:46:38;96937.78;;;11.89;100.00
70506;BME280;58032;49.820;6.274;2022-10-15T04:49:23;96943.22;;;11.93;100.00
70506;BME280;58032;49.820;6.274;2022-10-15T04:51:51;96933.09;;;11.86;100.00
70506;BME280;58032;49.820;6.274;2022-10-15T04:54:27;96934.66;;;11.87;100.00
70506;BME280;58032;49.820;6.274;2022-10-15T04:57:02;96935.44;;;11.87;100.00
70506;BME280;58032;49.820;6.274;2022-10-15T04:59:29;96924.44;;;11.90;100.00
70506;BME280;58032;49.820;6.274;2022-10-15T05:02:19;96925.69;;;11.88;100.00
70506;BME280;58032;49.820;6.274;2022-10-15T05:04:52;96919.38;;;11.79;100.00
70506;BME280;58032;49.820;6.274;2022-10-15T05:07:20;96924.50;;;11.80;100.00
70506;BME280;58032;49.820;6.274;2022-10-15T05:09:47;96926.69;;;11.85;100.00
70506;BME280;58032;49.820;6.274;2022-10-15T05:12:14;96920.75;;;11.83;100.00
70506;BME280;58032;49.820;6.274;2022-10-15T05:14:41;96926.06;;;11.81;100.00
70506;BME280;58032;49.820;6.274;2022-10-15T05:17:15;96929.09;;;11.78;100.00
70506;BME280;58032;49.820;6.274;2022-10-15T05:19:43;96930.06;;;11.90;100.00
70506;BME280;58032;49.820;6.274;2022-10-15T05:22:17;96927.75;;;11.88;100.00
70506;BME280;58032;49.820;6.274;2022-10-15T05:24:51;96928.44;;;11.83;100.00
70506;BME280;58032;49.820;6.274;2022-10-15T05:27:32;96936.09;;;11.82;100.00
70506;BME280;58032;49.820;6.274;2022-10-15T05:30:01;96936.91;;;11.83;100.00
70506;BME280;58032;49.820;6.274;2022-10-15T05:32:44;96936.09;;;11.82;100.00
70506;BME280;58032;49.820;6.274;2022-10-15T05:35:15;96937.47;;;11.87;100.00
70506;BME280;58032;49.820;6.274;2022-10-15T05:37:51;96930.75;;;11.84;100.00
70506;BME280;58032;49.820;6.274;2022-10-15T05:40:18;96943.59;;;11.85;100.00
70506;BME280;58032;49.820;6.274;2022-10-15T05:42:57;96950.00;;;11.86;100.00
70506;BME280;58032;49.820;6.274;2022-10-15T05:45:24;96938.91;;;11.82;100.00
70506;BME280;58032;49.820;6.274;2022-10-15T05:47:55;96936.78;;;11.77;100.00
70506;BME280;58032;49.820;6.274;2022-10-15T05:50:22;96938.34;;;11.78;100.00
70506;BME280;58032;49.820;6.274;2022-10-15T05:52:53;96938.03;;;11.76;100.00
70506;BME280;58032;49.820;6.274;2022-10-15T05:55:37;96934.53;;;11.81;100.00
70506;BME280;58032;49.820;6.274;2022-10-15T05:58:04;96937.09;;;11.79;100.00
70506;BME280;58032;49.820;6.274;2022-10-15T06:00:32;96940.47;;;11.83;100.00
70506;BME280;58032;49.820;6.274;2022-10-15T06:02:59;96936.19;;;11.73;100.00
70506;BME280;58032;49.820;6.274;2022-10-15T06:05:26;96937.34;;;11.81;100.00
70506;BME280;58032;49.820;6.274;2022-10-15T06:07:53;96935.53;;;11.78;100.00
70506;BME280;58032;49.820;6.274;2022-10-15T06:10:21;96946.88;;;11.84;100.00
70506;BME280;58032;49.820;6.274;2022-10-15T06:12:49;96945.25;;;11.77;100.00
70506;BME280;58032;49.820;6.274;2022-10-15T06:15:17;96947.88;;;11.81;100.00
70506;BME280;58032;49.820;6.274;2022-10-15T06:17:44;96945.72;;;11.76;100.00
70506;BME280;58032;49.820;6.274;2022-10-15T06:20:12;96948.38;;;11.79;100.00
70506;BME280;58032;49.820;6.274;2022-10-15T06:22:39;96948.38;;;11.79;100.00
70506;BME280;58032;49.820;6.274;2022-10-15T06:25:07;96951.19;;;11.79;100.00
70506;BME280;58032;49.820;6.274;2022-10-15T06:27:34;96943.69;;;11.76;100.00
70506;BME280;58032;49.820;6.274;2022-10-15T06:30:02;96953.41;;;11.75;100.00
70506;BME280;58032;49.820;6.274;2022-10-15T06:32:29;96947.09;;;11.80;100.00
70506;BME280;58032;49.820;6.274;2022-10-15T06:34:56;96942.91;;;11.76;100.00
70506;BME280;58032;49.820;6.274;2022-10-15T06:37:23;96947.88;;;11.81;100.00
70506;BME280;58032;49.820;6.274;2022-10-15T06:39:53;96938.63;;;11.80;100.00
70506;BME280;58032;49.820;6.274;2022-10-15T06:42:20;96945.94;;;11.87;100.00
70506;BME280;58032;49.820;6.274;2022-10-15T06:44:47;96947.69;;;11.84;100.00
70506;BME280;58032;49.820;6.274;2022-10-15T06:47:15;96950.81;;;11.86;100.00
70506;BME280;58032;49.820;6.274;2022-10-15T06:49:46;96955.84;;;11.82;100.00
70506;BME280;58032;49.820;6.274;2022-10-15T06:52:13;96958.09;;;11.78;100.00
70506;BME280;58032;49.820;6.274;2022-10-15T06:54:40;96963.06;;;11.83;100.00
70506;BME280;58032;49.820;6.274;2022-10-15T06:57:09;96970.25;;;11.84;100.00
70506;BME280;58032;49.820;6.274;2022-10-15T06:59:36;96967.94;;;11.83;100.00
70506;BME280;58032;49.820;6.274;2022-10-15T07:02:04;96964.59;;;11.84;100.00
70506;BME280;58032;49.820;6.274;2022-10-15T07:04:31;96963.66;;;11.87;100.00
70506;BME280;58032;49.820;6.274;2022-10-15T07:06:57;96972.03;;;11.97;100.00
70506;BME280;58032;49.820;6.274;2022-10-15T07:09:26;96970.50;;;12.11;100.00
70506;BME280;58032;49.820;6.274;2022-10-15T07:11:54;96969.16;;;12.21;100.00
70506;BME280;58032;49.820;6.274;2022-10-15T07:14:21;96964.69;;;12.29;100.00
70506;BME280;58032;49.820;6.274;2022-10-15T07:16:47;96973.63;;;12.43;100.00
70506;BME280;58032;49.820;6.274;2022-10-15T07:19:14;96954.75;;;12.49;100.00
70506;BME280;58032;49.820;6.274;2022-10-15T07:21:41;96955.41;;;12.59;100.00
70506;BME280;58032;49.820;6.274;2022-10-15T07:24:10;96952.81;;;12.40;100.00
70506;BME280;58032;49.820;6.274;2022-10-15T07:26:37;96944.25;;;12.34;100.00
70506;BME280;58032;49.820;6.274;2022-10-15T07:29:04;96953.59;;;12.41;100.00
70506;BME280;58032;49.820;6.274;2022-10-15T07:31:31;96952.41;;;12.47;100.00
70506;BME280;58032;49.820;6.274;2022-10-15T07:33:58;96960.69;;;12.51;100.00
70506;BME280;58032;49.820;6.274;2022-10-15T07:36:25;96961.84;;;12.44;100.00
70506;BME280;58032;49.820;6.274;2022-10-15T07:38:52;96960.69;;;12.51;100.00
70506;BME280;58032;49.820;6.274;2022-10-15T07:41:20;96959.03;;;12.44;100.00
70506;BME280;58032;49.820;6.274;2022-10-15T07:43:47;96963.41;;;12.45;100.00
70506;BME280;58032;49.820;6.274;2022-10-15T07:46:17;96965.06;;;12.37;100.00
70506;BME280;58032;49.820;6.274;2022-10-15T07:48:44;96959.53;;;12.43;100.00
70506;BME280;58032;49.820;6.274;2022-10-15T07:51:11;96968.19;;;12.39;100.00
70506;BME280;58032;49.820;6.274;2022-10-15T07:53:38;96964.09;;;12.40;100.00
70506;BME280;58032;49.820;6.274;2022-10-15T07:56:07;96959.53;;;12.43;100.00
70506;BME280;58032;49.820;6.274;2022-10-15T07:58:34;96963.31;;;12.55;100.00
70506;BME280;58032;49.820;6.274;2022-10-15T08:01:08;96963.38;;;12.75;100.00
70506;BME280;58032;49.820;6.274;2022-10-15T08:03:36;96963.66;;;12.77;100.00
70506;BME280;58032;49.820;6.274;2022-10-15T08:06:06;96962.47;;;12.84;100.00
70506;BME280;58032;49.820;6.274;2022-10-15T08:08:34;96954.75;;;12.99;100.00
70506;BME280;58032;49.820;6.274;2022-10-15T08:13:32;96953.44;;;13.16;100.00
70506;BME280;58032;49.820;6.274;2022-10-15T08:15:59;96946.38;;;13.26;100.00
70506;BME280;58032;49.820;6.274;2022-10-15T08:18:26;96946.38;;;13.26;100.00
70506;BME280;58032;49.820;6.274;2022-10-15T08:20:53;96951.59;;;13.12;100.00
70506;BME280;58032;49.820;6.274;2022-10-15T08:23:20;96957.53;;;13.14;100.00
70506;BME280;58032;49.820;6.274;2022-10-15T08:25:47;96946.56;;;13.22;100.00
70506;BME280;58032;49.820;6.274;2022-10-15T08:28:14;96947.88;;;13.21;100.00
70506;BME280;58032;49.820;6.274;2022-10-15T08:30:41;96945.69;;;13.31;100.00
70506;BME280;58032;49.820;6.274;2022-10-15T08:33:10;96944.78;;;13.40;100.00
70506;BME280;58032;49.820;6.274;2022-10-15T08:35:41;96945.84;;;13.42;100.00
70506;BME280;58032;49.820;6.274;2022-10-15T08:38:10;96943.22;;;13.39;100.00
70506;BME280;58032;49.820;6.274;2022-10-15T08:40:38;96938.75;;;13.32;100.00
70506;BME280;58032;49.820;6.274;2022-10-15T08:43:58;96945.63;;;13.46;100.00
70506;BME280;58032;49.820;6.274;2022-10-15T08:46:20;96940.03;;;13.31;100.00
70506;BME280;58032;49.820;6.274;2022-10-15T08:48:52;96935.97;;;13.38;100.00
70506;BME280;58032;49.820;6.274;2022-10-15T08:51:22;96940.47;;;13.44;100.00
70506;BME280;58032;49.820;6.274;2022-10-15T08:53:57;96944.34;;;13.47;100.00
70506;BME280;58032;49.820;6.274;2022-10-15T08:56:29;96940.88;;;13.58;100.00
70506;BME280;58032;49.820;6.274;2022-10-15T08:59:18;96933.53;;;13.66;100.00
70506;BME280;58032;49.820;6.274;2022-10-15T09:09:54;96930.28;;;13.53;100.00
70506;BME280;58032;49.820;6.274;2022-10-15T09:15:19;96928.56;;;13.82;100.00
70506;BME280;58032;49.820;6.274;2022-10-15T09:17:48;96918.53;;;13.60;100.00
70506;BME280;58032;49.820;6.274;2022-10-15T09:20:29;96934.03;;;13.65;100.00
70506;BME280;58032;49.820;6.274;2022-10-15T09:22:57;96923.63;;;13.76;100.00
70506;BME280;58032;49.820;6.274;2022-10-15T09:25:31;96924.59;;;13.73;100.00
70506;BME280;58032;49.820;6.274;2022-10-15T09:28:08;96919.09;;;13.64;100.00
70506;BME280;58032;49.820;6.274;2022-10-15T09:33:35;96930.97;;;13.68;100.00
70506;BME280;58032;49.820;6.274;2022-10-15T09:41:28;96932.69;;;13.60;100.00
70506;BME280;58032;49.820;6.274;2022-10-15T09:44:01;96939.47;;;13.68;100.00
70506;BME280;58032;49.820;6.274;2022-10-15T09:46:44;96933.44;;;13.81;100.00
70506;BME280;58032;49.820;6.274;2022-10-15T09:49:26;96937.88;;;13.88;100.00
70506;BME280;58032;49.820;6.274;2022-10-15T09:57:01;96940.22;;;14.16;100.00
70506;BME280;58032;49.820;6.274;2022-10-15T09:59:28;96940.69;;;14.08;100.00
70506;BME280;58032;49.820;6.274;2022-10-15T10:04:28;96941.66;;;14.32;100.00
70506;BME280;58032;49.820;6.274;2022-10-15T10:06:58;96940.78;;;14.20;100.00
70506;BME280;58032;49.820;6.274;2022-10-15T10:09:30;96938.97;;;14.17;100.00
70506;BME280;58032;49.820;6.274;2022-10-15T10:12:03;96948.88;;;14.06;100.00
70506;BME280;58032;49.820;6.274;2022-10-15T10:14:33;96943.50;;;14.08;100.00
70506;BME280;58032;49.820;6.274;2022-10-15T10:17:19;96945.78;;;14.04;100.00
70506;BME280;58032;49.820;6.274;2022-10-15T10:22:53;96941.34;;;14.24;100.00
70506;BME280;58032;49.820;6.274;2022-10-15T10:25:40;96943.88;;;14.22;100.00
70506;BME280;58032;49.820;6.274;2022-10-15T10:30:46;96949.09;;;14.29;100.00
70506;BME280;58032;49.820;6.274;2022-10-15T10:35:53;96935.09;;;14.78;100.00
70506;BME280;58032;49.820;6.274;2022-10-15T10:38:33;96932.91;;;14.94;100.00
70506;BME280;58032;49.820;6.274;2022-10-15T10:41:04;96929.00;;;14.91;100.00
70506;BME280;58032;49.820;6.274;2022-10-15T10:43:35;96931.81;;;14.85;100.00
70506;BME280;58032;49.820;6.274;2022-10-15T10:48:48;96938.31;;;14.65;100.00
70506;BME280;58032;49.820;6.274;2022-10-15T10:51:26;96930.66;;;14.66;100.00
70506;BME280;58032;49.820;6.274;2022-10-15T10:54:03;96937.44;;;14.80;100.00
70506;BME280;58032;49.820;6.274;2022-10-15T10:56:40;96935.84;;;14.73;100.00
70506;BME280;58032;49.820;6.274;2022-10-15T10:59:18;96935.84;;;14.73;100.00
70506;BME280;58032;49.820;6.274;2022-10-15T11:01:49;96931.56;;;14.89;100.00
70506;BME280;58032;49.820;6.274;2022-10-15T11:04:38;96935.19;;;14.90;100.00
70506;BME280;58032;49.820;6.274;2022-10-15T11:09:47;96927.31;;;15.11;100.00
70506;BME280;58032;49.820;6.274;2022-10-15T11:15:27;96929.63;;;15.07;100.00
70506;BME280;58032;49.820;6.274;2022-10-15T11:26:36;96908.06;;;15.26;100.00
70506;BME280;58032;49.820;6.274;2022-10-15T11:29:41;96910.75;;;15.52;100.00
70506;BME280;58032;49.820;6.274;2022-10-15T11:46:23;96914.28;;;15.30;100.00
70506;BME280;58032;49.820;6.274;2022-10-15T11:54:39;96922.94;;;15.59;100.00
70506;BME280;58032;49.820;6.274;2022-10-15T11:57:12;96921.38;;;15.63;100.00
70506;BME280;58032;49.820;6.274;2022-10-15T12:02:38;96916.19;;;15.56;100.00
70506;BME280;58032;49.820;6.274;2022-10-15T12:05:13;96913.00;;;15.37;100.00
70506;BME280;58032;49.820;6.274;2022-10-15T12:07:48;96916.81;;;15.17;100.00
70506;BME280;58032;49.820;6.274;2022-10-15T12:15:35;96914.22;;;15.19;100.00
70506;BME280;58032;49.820;6.274;2022-10-15T12:18:38;96915.72;;;15.09;100.00
70506;BME280;58032;49.820;6.274;2022-10-15T12:22:11;96918.94;;;15.33;100.00
70506;BME280;58032;49.820;6.274;2022-10-15T12:32:35;96901.91;;;15.33;100.00
70506;BME280;58032;49.820;6.274;2022-10-15T12:35:50;96893.19;;;15.43;100.00
70506;BME280;58032;49.820;6.274;2022-10-15T12:37:52;96894.00;;;15.55;100.00
70506;BME280;58032;49.820;6.274;2022-10-15T12:43:15;96895.78;;;15.46;100.00
70506;BME280;58032;49.820;6.274;2022-10-15T12:46:12;96895.44;;;15.27;100.00
70506;BME280;58032;49.820;6.274;2022-10-15T12:48:44;96902.94;;;15.30;100.00
70506;BME280;58032;49.820;6.274;2022-10-15T12:53:43;96896.81;;;15.49;100.00
70506;BME280;58032;49.820;6.274;2022-10-15T12:58:45;96891.09;;;15.32;100.00
70506;BME280;58032;49.820;6.274;2022-10-15T13:09:25;96906.59;;;15.48;100.00
70506;BME280;58032;49.820;6.274;2022-10-15T13:11:56;96899.44;;;15.58;100.00
70506;BME280;58032;49.820;6.274;2022-10-15T13:14:31;96901.41;;;16.18;100.00
70506;BME280;58032;49.820;6.274;2022-10-15T13:17:02;96896.50;;;16.41;100.00
70506;BME280;58032;49.820;6.274;2022-10-15T13:19:38;96883.84;;;16.31;100.00
70506;BME280;58032;49.820;6.274;2022-10-15T13:22:22;96884.34;;;15.90;100.00
70506;BME280;58032;49.820;6.274;2022-10-15T13:24:50;96882.44;;;15.70;100.00
70506;BME280;58032;49.820;6.274;2022-10-15T13:27:31;96881.94;;;15.77;100.00
70506;BME280;58032;49.820;6.274;2022-10-15T13:30:20;96884.53;;;15.75;100.00
70506;BME280;58032;49.820;6.274;2022-10-15T13:32:48;96891.59;;;15.30;100.00
70506;BME280;58032;49.820;6.274;2022-10-15T13:35:28;96879.03;;;15.48;100.00
70506;BME280;58032;49.820;6.274;2022-10-15T13:37:59;96877.69;;;15.32;100.00
70506;BME280;58032;49.820;6.274;2022-10-15T13:40:28;96885.22;;;15.52;100.00
70506;BME280;58032;49.820;6.274;2022-10-15T13:45:57;96892.59;;;15.27;100.00
70506;BME280;58032;49.820;6.274;2022-10-15T13:48:30;96900.09;;;15.30;100.00
70506;BME280;58032;49.820;6.274;2022-10-15T13:51:09;96895.59;;;15.61;100.00
70506;BME280;58032;49.820;6.274;2022-10-15T13:53:49;96895.38;;;15.82;100.00
70506;BME280;58032;49.820;6.274;2022-10-15T13:56:31;96891.69;;;15.53;100.00
70506;BME280;58032;49.820;6.274;2022-10-15T13:59:15;96888.56;;;15.45;100.00
70506;BME280;58032;49.820;6.274;2022-10-15T14:02:18;96885.84;;;15.19;100.00
70506;BME280;58032;49.820;6.274;2022-10-15T14:05:14;96891.94;;;15.49;100.00
70506;BME280;58032;49.820;6.274;2022-10-15T14:07:42;96889.13;;;15.66;100.00
70506;BME280;58032;49.820;6.274;2022-10-15T14:10:20;96882.94;;;15.68;100.00
70506;BME280;58032;49.820;6.274;2022-10-15T14:12:50;96888.88;;;15.64;100.00
70506;BME280;58032;49.820;6.274;2022-10-15T14:18:32;96887.63;;;15.82;100.00
70506;BME280;58032;49.820;6.274;2022-10-15T14:21:03;96895.34;;;15.76;100.00
70506;BME280;58032;49.820;6.274;2022-10-15T14:23:47;96887.16;;;15.84;100.00
70506;BME280;58032;49.820;6.274;2022-10-15T14:26:24;96885.59;;;15.83;100.00
70506;BME280;58032;49.820;6.274;2022-10-15T14:28:59;96900.78;;;15.80;100.00
70506;BME280;58032;49.820;6.274;2022-10-15T14:31:39;96905.63;;;15.57;100.00
70506;BME280;58032;49.820;6.274;2022-10-15T14:34:43;96892.84;;;15.90;100.00
70506;BME280;58032;49.820;6.274;2022-10-15T14:37:38;96902.91;;;15.96;100.00
70506;BME280;58032;49.820;6.274;2022-10-15T14:40:17;96911.16;;;15.83;100.00
70506;BME280;58032;49.820;6.274;2022-10-15T14:43:16;96910.63;;;15.85;100.00
70506;BME280;58032;49.820;6.274;2022-10-15T14:48:32;96902.31;;;15.75;100.00
70506;BME280;58032;49.820;6.274;2022-10-15T14:51:19;96908.31;;;15.94;100.00
70506;BME280;58032;49.820;6.274;2022-10-15T14:54:04;96904.63;;;15.65;100.00
70506;BME280;58032;49.820;6.274;2022-10-15T14:56:58;96906.16;;;15.55;100.00
70506;BME280;58032;49.820;6.274;2022-10-15T14:59:36;96909.78;;;15.61;100.00
70506;BME280;58032;49.820;6.274;2022-10-15T15:02:14;96912.59;;;15.61;100.00
70506;BME280;58032;49.820;6.274;2022-10-15T15:08:04;96898.97;;;15.71;100.00
70506;BME280;58032;49.820;6.274;2022-10-15T15:10:41;96912.13;;;15.69;100.00
70506;BME280;58032;49.820;6.274;2022-10-15T15:13:23;96913.88;;;15.55;100.00
70506;BME280;58032;49.820;6.274;2022-10-15T15:15:51;96917.69;;;15.40;100.00
70506;BME280;58032;49.820;6.274;2022-10-15T15:18:24;96929.78;;;15.41;100.00
70506;BME280;58032;49.820;6.274;2022-10-15T15:21:20;96929.69;;;15.18;100.00
70506;BME280;58032;49.820;6.274;2022-10-15T15:23:59;96932.78;;;15.20;100.00
70506;BME280;58032;49.820;6.274;2022-10-15T15:26:49;96935.06;;;15.10;100.00
70506;BME280;58032;49.820;6.274;2022-10-15T15:29:28;96942.09;;;15.26;100.00
70506;BME280;58032;49.820;6.274;2022-10-15T15:32:09;96945.94;;;15.17;100.00
70506;BME280;58032;49.820;6.274;2022-10-15T15:34:59;96940.78;;;15.22;100.00
70506;BME280;58032;49.820;6.274;2022-10-15T15:37:33;96939.19;;;15.09;100.00
70506;BME280;58032;49.820;6.274;2022-10-15T15:40:07;96929.81;;;14.97;100.00
70506;BME280;58032;49.820;6.274;2022-10-15T15:42:41;96935.25;;;15.01;100.00